Grissom ARB Airport
KGUS : rendu visible

Aérodrome :











RETROUVEZ-NOUS SUR...

 
LOGIN :

S'inscrire | Disclaimer

   EN    FR    IT 

 









Légende :    VFR   VFR Marginal   IFR   IFR Intensif   IFR Très Intensif
Visi : 
Plafond : 
>= 8 km
>= 3000ft
5 à 8 km
1000 à 3000 ft
1500m à 5 km
500 à 1000 ft
800 à 1500m
200 à 500 ft
< 800m
< 200 ft
Symboles :   Orages  Brouillard  Fortes neiges  Fortes précipitations  Vent > 20 kt






- Altitude de l'aérodrome : 812 ft


KGUS - Grissom ARB

DERNIER METAR :
  • 221956Z AUTO 21013KT 10SM SCT041 BKN050 25/21 A3002 RMK AO2 SLP166 T02500207 $

METARs EXPIRÉS :
  • 221856Z AUTO 20015G21KT 10SM SCT036 25/22 A3002 RMK AO2 SLP166 T02480219 $
  • 221756Z AUTO 22013KT 10SM SCT032 BKN045 25/22 A3004 RMK AO2 SLP173 T02450222 10253 20137 57017 $

TAF TAF KGUS
Valide du 22 à 13h jusqu'au 23 à 19h UTC


221301Z 2213/2319 13009KT 0800 FG BKN002 QNH3009INS
BECMG 2213/2215 18012KT 9999 NSW FEW008 SCT020 QNH3005INS
BECMG 2218/2219 20015G25KT 9999 SCT025 QNH3000INS
BECMG 2223/2224 18012KT 9999 FEW010 QNH2995INS
BECMG 2305/2306 19013KT 8000 BR SCT010 BKN020 QNH2992INS
BECMG 2314/2315 20015G20KT 9999 NSW SCT015 BKN025 QNH2992INS
BECMG 2317/2318 22020G30KT 9000 -TSRA BKN020 OVC030 520023 QNH2985INS TX25/2220Z TN14/2213Z
FIR KZAU / Amérique du Nord



MET'MAP, la Météo Aéronautique d'un coup d'oeil ! - Copyright ORBIFLY Décembre 2007 - Disclaimer

ORBIFLY MET'MAP TEAM :

Programmation & Développement : Alexandra Zaïnal
Sur une idée originale de : Baudouin d'Aumeries
Assistance à la programmation : Marc-Olivier Méhu
Soutien technique & logistique : Manuel Goepfert

Contact : metmap@orbifly.com




SOURCES & CREDITS :

   NOAA       Earth
Advisory